sensor_id;sensor_type;location;lat;lon;timestamp;pressure;altitude;pressure_sealevel;temperature
71463;BMP180;59266;52.608;13.260;2023-03-31T00:00:23;100088.00;;;9.90
71463;BMP180;59266;52.608;13.260;2023-03-31T00:02:49;100097.00;;;10.00
71463;BMP180;59266;52.608;13.260;2023-03-31T00:05:21;100091.00;;;10.10
71463;BMP180;59266;52.608;13.260;2023-03-31T00:07:56;100089.00;;;10.10
71463;BMP180;59266;52.608;13.260;2023-03-31T00:10:33;100097.00;;;10.10
71463;BMP180;59266;52.608;13.260;2023-03-31T00:13:00;100093.00;;;10.00
71463;BMP180;59266;52.608;13.260;2023-03-31T00:15:28;100094.00;;;10.10
71463;BMP180;59266;52.608;13.260;2023-03-31T00:17:56;100083.00;;;10.20
71463;BMP180;59266;52.608;13.260;2023-03-31T00:20:27;100089.00;;;10.20
71463;BMP180;59266;52.608;13.260;2023-03-31T00:22:53;100079.00;;;10.10
71463;BMP180;59266;52.608;13.260;2023-03-31T00:25:25;100073.00;;;10.20
71463;BMP180;59266;52.608;13.260;2023-03-31T00:27:53;100082.00;;;10.20
71463;BMP180;59266;52.608;13.260;2023-03-31T00:30:21;100066.00;;;10.20
71463;BMP180;59266;52.608;13.260;2023-03-31T00:32:48;100062.00;;;10.20
71463;BMP180;59266;52.608;13.260;2023-03-31T00:35:14;100062.00;;;10.20
71463;BMP180;59266;52.608;13.260;2023-03-31T00:37:41;100060.00;;;10.20
71463;BMP180;59266;52.608;13.260;2023-03-31T00:40:09;100062.00;;;10.20
71463;BMP180;59266;52.608;13.260;2023-03-31T00:42:42;100074.00;;;10.20
71463;BMP180;59266;52.608;13.260;2023-03-31T00:48:13;100063.00;;;10.20
71463;BMP180;59266;52.608;13.260;2023-03-31T00:50:48;100060.00;;;10.30
71463;BMP180;59266;52.608;13.260;2023-03-31T00:53:18;100053.00;;;10.30
71463;BMP180;59266;52.608;13.260;2023-03-31T00:55:50;100052.00;;;10.10
71463;BMP180;59266;52.608;13.260;2023-03-31T00:58:19;100045.00;;;10.20
71463;BMP180;59266;52.608;13.260;2023-03-31T01:00:46;100043.00;;;10.20
71463;BMP180;59266;52.608;13.260;2023-03-31T01:03:15;100046.00;;;10.10
71463;BMP180;59266;52.608;13.260;2023-03-31T01:05:48;100043.00;;;10.10
71463;BMP180;59266;52.608;13.260;2023-03-31T01:08:17;100031.00;;;10.00
71463;BMP180;59266;52.608;13.260;2023-03-31T01:10:47;100039.00;;;10.00
71463;BMP180;59266;52.608;13.260;2023-03-31T01:13:15;100031.00;;;9.90
71463;BMP180;59266;52.608;13.260;2023-03-31T01:15:43;100022.00;;;9.90
71463;BMP180;59266;52.608;13.260;2023-03-31T01:18:12;100022.00;;;9.90
71463;BMP180;59266;52.608;13.260;2023-03-31T01:23:46;100012.00;;;9.80
71463;BMP180;59266;52.608;13.260;2023-03-31T01:29:40;100004.00;;;9.80
71463;BMP180;59266;52.608;13.260;2023-03-31T01:35:33;100004.00;;;9.70
71463;BMP180;59266;52.608;13.260;2023-03-31T01:41:25;99995.00;;;9.60
71463;BMP180;59266;52.608;13.260;2023-03-31T01:44:27;99998.00;;;9.50
71463;BMP180;59266;52.608;13.260;2023-03-31T01:47:00;99984.00;;;9.40
71463;BMP180;59266;52.608;13.260;2023-03-31T01:49:33;99987.00;;;9.40
71463;BMP180;59266;52.608;13.260;2023-03-31T01:52:18;99984.00;;;9.40
71463;BMP180;59266;52.608;13.260;2023-03-31T01:57:29;99982.00;;;9.40
71463;BMP180;59266;52.608;13.260;2023-03-31T02:00:02;99978.00;;;9.40
71463;BMP180;59266;52.608;13.260;2023-03-31T02:02:35;99972.00;;;9.40
71463;BMP180;59266;52.608;13.260;2023-03-31T02:05:17;99973.00;;;9.40
71463;BMP180;59266;52.608;13.260;2023-03-31T02:08:02;99966.00;;;9.50
71463;BMP180;59266;52.608;13.260;2023-03-31T02:10:30;99965.00;;;9.40
71463;BMP180;59266;52.608;13.260;2023-03-31T02:13:00;99977.00;;;9.50
71463;BMP180;59266;52.608;13.260;2023-03-31T02:15:32;99977.00;;;9.50
71463;BMP180;59266;52.608;13.260;2023-03-31T02:18:02;99971.00;;;9.40
71463;BMP180;59266;52.608;13.260;2023-03-31T02:20:32;99966.00;;;9.50
71463;BMP180;59266;52.608;13.260;2023-03-31T02:23:01;99964.00;;;9.50
71463;BMP180;59266;52.608;13.260;2023-03-31T02:25:35;99965.00;;;9.50
71463;BMP180;59266;52.608;13.260;2023-03-31T02:28:08;99970.00;;;9.60
71463;BMP180;59266;52.608;13.260;2023-03-31T02:30:45;99959.00;;;9.60
71463;BMP180;59266;52.608;13.260;2023-03-31T02:33:16;99957.00;;;9.60
71463;BMP180;59266;52.608;13.260;2023-03-31T02:35:44;99964.00;;;9.50
71463;BMP180;59266;52.608;13.260;2023-03-31T02:38:10;99951.00;;;9.60
71463;BMP180;59266;52.608;13.260;2023-03-31T02:40:37;99955.00;;;9.60
71463;BMP180;59266;52.608;13.260;2023-03-31T02:43:03;99944.00;;;9.70
71463;BMP180;59266;52.608;13.260;2023-03-31T02:45:48;99938.00;;;9.60
71463;BMP180;59266;52.608;13.260;2023-03-31T02:48:19;99936.00;;;9.70
71463;BMP180;59266;52.608;13.260;2023-03-31T02:53:57;99935.00;;;9.70
71463;BMP180;59266;52.608;13.260;2023-03-31T02:59:20;99930.00;;;9.90
71463;BMP180;59266;52.608;13.260;2023-03-31T03:02:02;99929.00;;;9.80
71463;BMP180;59266;52.608;13.260;2023-03-31T03:07:57;99923.00;;;9.80
71463;BMP180;59266;52.608;13.260;2023-03-31T03:10:47;99919.00;;;9.80
71463;BMP180;59266;52.608;13.260;2023-03-31T03:13:27;99915.00;;;9.80
71463;BMP180;59266;52.608;13.260;2023-03-31T03:16:06;99918.00;;;9.80
71463;BMP180;59266;52.608;13.260;2023-03-31T03:18:34;99916.00;;;9.90
71463;BMP180;59266;52.608;13.260;2023-03-31T03:21:00;99907.00;;;10.00
71463;BMP180;59266;52.608;13.260;2023-03-31T03:23:30;99906.00;;;10.00
71463;BMP180;59266;52.608;13.260;2023-03-31T03:25:58;99912.00;;;10.10
71463;BMP180;59266;52.608;13.260;2023-03-31T03:28:24;99900.00;;;10.00
71463;BMP180;59266;52.608;13.260;2023-03-31T03:30:51;99901.00;;;10.10
71463;BMP180;59266;52.608;13.260;2023-03-31T03:33:18;99900.00;;;10.10
71463;BMP180;59266;52.608;13.260;2023-03-31T03:35:45;99899.00;;;10.20
71463;BMP180;59266;52.608;13.260;2023-03-31T03:38:12;99888.00;;;10.20
71463;BMP180;59266;52.608;13.260;2023-03-31T03:40:41;99899.00;;;10.10
71463;BMP180;59266;52.608;13.260;2023-03-31T03:43:07;99893.00;;;10.20
71463;BMP180;59266;52.608;13.260;2023-03-31T03:45:34;99886.00;;;10.20
71463;BMP180;59266;52.608;13.260;2023-03-31T03:48:02;99891.00;;;10.20
71463;BMP180;59266;52.608;13.260;2023-03-31T03:50:28;99883.00;;;10.20
71463;BMP180;59266;52.608;13.260;2023-03-31T03:52:56;99887.00;;;10.30
71463;BMP180;59266;52.608;13.260;2023-03-31T03:55:22;99885.00;;;10.30
71463;BMP180;59266;52.608;13.260;2023-03-31T03:57:49;99873.00;;;10.30
71463;BMP180;59266;52.608;13.260;2023-03-31T04:00:17;99868.00;;;10.20
71463;BMP180;59266;52.608;13.260;2023-03-31T04:02:44;99865.00;;;10.10
71463;BMP180;59266;52.608;13.260;2023-03-31T04:05:10;99863.00;;;10.20
71463;BMP180;59266;52.608;13.260;2023-03-31T04:07:37;99862.00;;;10.20
71463;BMP180;59266;52.608;13.260;2023-03-31T04:10:04;99858.00;;;10.20
71463;BMP180;59266;52.608;13.260;2023-03-31T04:12:33;99859.00;;;10.10
71463;BMP180;59266;52.608;13.260;2023-03-31T04:15:00;99860.00;;;10.20
71463;BMP180;59266;52.608;13.260;2023-03-31T04:17:27;99859.00;;;10.20
71463;BMP180;59266;52.608;13.260;2023-03-31T04:20:02;99855.00;;;10.00
71463;BMP180;59266;52.608;13.260;2023-03-31T04:22:31;99846.00;;;10.00
71463;BMP180;59266;52.608;13.260;2023-03-31T04:25:03;99849.00;;;10.10
71463;BMP180;59266;52.608;13.260;2023-03-31T04:27:30;99844.00;;;10.10
71463;BMP180;59266;52.608;13.260;2023-03-31T04:29:59;99838.00;;;10.20
71463;BMP180;59266;52.608;13.260;2023-03-31T04:32:28;99831.00;;;10.20
71463;BMP180;59266;52.608;13.260;2023-03-31T04:34:58;99838.00;;;10.20
71463;BMP180;59266;52.608;13.260;2023-03-31T04:37:28;99831.00;;;10.10
71463;BMP180;59266;52.608;13.260;2023-03-31T04:40:02;99825.00;;;10.20
71463;BMP180;59266;52.608;13.260;2023-03-31T04:42:33;99821.00;;;10.20
71463;BMP180;59266;52.608;13.260;2023-03-31T04:45:00;99823.00;;;10.20
71463;BMP180;59266;52.608;13.260;2023-03-31T04:47:30;99819.00;;;10.20
71463;BMP180;59266;52.608;13.260;2023-03-31T04:49:56;99810.00;;;10.20
71463;BMP180;59266;52.608;13.260;2023-03-31T04:52:23;99806.00;;;10.40
71463;BMP180;59266;52.608;13.260;2023-03-31T04:54:50;99800.00;;;10.20
71463;BMP180;59266;52.608;13.260;2023-03-31T04:57:16;99804.00;;;10.30
71463;BMP180;59266;52.608;13.260;2023-03-31T04:59:44;99805.00;;;10.20
71463;BMP180;59266;52.608;13.260;2023-03-31T05:02:11;99793.00;;;10.30
71463;BMP180;59266;52.608;13.260;2023-03-31T05:04:38;99796.00;;;10.20
71463;BMP180;59266;52.608;13.260;2023-03-31T05:07:05;99789.00;;;10.30
71463;BMP180;59266;52.608;13.260;2023-03-31T05:09:31;99792.00;;;10.30
71463;BMP180;59266;52.608;13.260;2023-03-31T05:12:00;99782.00;;;10.30
71463;BMP180;59266;52.608;13.260;2023-03-31T05:14:27;99779.00;;;10.20
71463;BMP180;59266;52.608;13.260;2023-03-31T05:16:54;99781.00;;;10.10
71463;BMP180;59266;52.608;13.260;2023-03-31T05:19:24;99771.00;;;10.10
71463;BMP180;59266;52.608;13.260;2023-03-31T05:21:52;99768.00;;;10.10
71463;BMP180;59266;52.608;13.260;2023-03-31T05:24:20;99763.00;;;10.10
71463;BMP180;59266;52.608;13.260;2023-03-31T05:26:47;99764.00;;;10.00
71463;BMP180;59266;52.608;13.260;2023-03-31T05:29:18;99766.00;;;10.00
71463;BMP180;59266;52.608;13.260;2023-03-31T05:31:46;99768.00;;;10.00
71463;BMP180;59266;52.608;13.260;2023-03-31T05:34:14;99758.00;;;10.00
71463;BMP180;59266;52.608;13.260;2023-03-31T05:36:41;99753.00;;;10.10
71463;BMP180;59266;52.608;13.260;2023-03-31T05:39:08;99752.00;;;10.10
71463;BMP180;59266;52.608;13.260;2023-03-31T05:41:35;99741.00;;;10.20
71463;BMP180;59266;52.608;13.260;2023-03-31T05:44:03;99738.00;;;10.20
71463;BMP180;59266;52.608;13.260;2023-03-31T05:46:29;99741.00;;;10.30
71463;BMP180;59266;52.608;13.260;2023-03-31T05:48:56;99735.00;;;10.50
71463;BMP180;59266;52.608;13.260;2023-03-31T05:51:24;99727.00;;;10.70
71463;BMP180;59266;52.608;13.260;2023-03-31T05:53:51;99724.00;;;10.80
71463;BMP180;59266;52.608;13.260;2023-03-31T05:56:18;99729.00;;;10.90
71463;BMP180;59266;52.608;13.260;2023-03-31T05:58:45;99715.00;;;11.00
71463;BMP180;59266;52.608;13.260;2023-03-31T06:01:16;99725.00;;;11.10
71463;BMP180;59266;52.608;13.260;2023-03-31T06:03:49;99715.00;;;11.30
71463;BMP180;59266;52.608;13.260;2023-03-31T06:06:16;99686.00;;;11.20
71463;BMP180;59266;52.608;13.260;2023-03-31T06:08:44;99708.00;;;11.30
71463;BMP180;59266;52.608;13.260;2023-03-31T06:11:14;99711.00;;;11.10
71463;BMP180;59266;52.608;13.260;2023-03-31T06:13:42;99695.00;;;11.10
71463;BMP180;59266;52.608;13.260;2023-03-31T06:16:10;99701.00;;;11.00
71463;BMP180;59266;52.608;13.260;2023-03-31T06:18:38;99668.00;;;11.10
71463;BMP180;59266;52.608;13.260;2023-03-31T06:21:06;99653.00;;;11.60
71463;BMP180;59266;52.608;13.260;2023-03-31T06:23:33;99337.00;;;12.40
71463;BMP180;59266;52.608;13.260;2023-03-31T06:26:05;99679.00;;;13.70
71463;BMP180;59266;52.608;13.260;2023-03-31T06:28:34;99699.00;;;13.10
71463;BMP180;59266;52.608;13.260;2023-03-31T06:31:04;99692.00;;;13.00
71463;BMP180;59266;52.608;13.260;2023-03-31T06:33:33;99687.00;;;12.80
71463;BMP180;59266;52.608;13.260;2023-03-31T06:36:00;99674.00;;;12.70
71463;BMP180;59266;52.608;13.260;2023-03-31T06:38:30;99599.00;;;12.60
71463;BMP180;59266;52.608;13.260;2023-03-31T06:40:58;99684.00;;;12.90
71463;BMP180;59266;52.608;13.260;2023-03-31T06:43:24;99682.00;;;13.20
71463;BMP180;59266;52.608;13.260;2023-03-31T06:45:52;99679.00;;;13.10
71463;BMP180;59266;52.608;13.260;2023-03-31T06:48:19;99688.00;;;12.90
71463;BMP180;59266;52.608;13.260;2023-03-31T06:50:47;99662.00;;;13.10
71463;BMP180;59266;52.608;13.260;2023-03-31T06:53:14;99658.00;;;13.50
71463;BMP180;59266;52.608;13.260;2023-03-31T06:55:42;99654.00;;;13.90
71463;BMP180;59266;52.608;13.260;2023-03-31T06:58:08;99643.00;;;13.70
71463;BMP180;59266;52.608;13.260;2023-03-31T07:00:35;99648.00;;;14.20
71463;BMP180;59266;52.608;13.260;2023-03-31T07:03:03;99647.00;;;15.50
71463;BMP180;59266;52.608;13.260;2023-03-31T07:05:31;99636.00;;;16.80
71463;BMP180;59266;52.608;13.260;2023-03-31T07:07:58;99647.00;;;16.70
71463;BMP180;59266;52.608;13.260;2023-03-31T07:10:28;99647.00;;;17.90
71463;BMP180;59266;52.608;13.260;2023-03-31T07:12:55;99650.00;;;17.40
71463;BMP180;59266;52.608;13.260;2023-03-31T07:15:22;99643.00;;;17.50
71463;BMP180;59266;52.608;13.260;2023-03-31T07:17:55;99633.00;;;17.30
71463;BMP180;59266;52.608;13.260;2023-03-31T07:20:30;99622.00;;;20.00
71463;BMP180;59266;52.608;13.260;2023-03-31T07:22:59;99626.00;;;21.30
71463;BMP180;59266;52.608;13.260;2023-03-31T07:25:25;99624.00;;;21.00
71463;BMP180;59266;52.608;13.260;2023-03-31T07:27:52;99627.00;;;19.90
71463;BMP180;59266;52.608;13.260;2023-03-31T07:30:19;99628.00;;;19.30
71463;BMP180;59266;52.608;13.260;2023-03-31T07:32:47;99638.00;;;19.20
71463;BMP180;59266;52.608;13.260;2023-03-31T07:35:14;99642.00;;;18.90
71463;BMP180;59266;52.608;13.260;2023-03-31T07:37:43;99635.00;;;19.00
71463;BMP180;59266;52.608;13.260;2023-03-31T07:40:14;99635.00;;;19.10
71463;BMP180;59266;52.608;13.260;2023-03-31T07:42:41;99624.00;;;18.80
71463;BMP180;59266;52.608;13.260;2023-03-31T07:45:10;99628.00;;;19.90
71463;BMP180;59266;52.608;13.260;2023-03-31T07:47:37;99627.00;;;20.00
71463;BMP180;59266;52.608;13.260;2023-03-31T07:50:06;99633.00;;;20.80
71463;BMP180;59266;52.608;13.260;2023-03-31T07:52:33;99621.00;;;21.40
71463;BMP180;59266;52.608;13.260;2023-03-31T07:55:02;99608.00;;;23.30
71463;BMP180;59266;52.608;13.260;2023-03-31T07:57:29;99610.00;;;23.90
71463;BMP180;59266;52.608;13.260;2023-03-31T07:59:56;99625.00;;;23.10
71463;BMP180;59266;52.608;13.260;2023-03-31T08:02:23;99626.00;;;22.40
71463;BMP180;59266;52.608;13.260;2023-03-31T08:04:51;99614.00;;;20.50
71463;BMP180;59266;52.608;13.260;2023-03-31T08:07:25;99618.00;;;19.70
71463;BMP180;59266;52.608;13.260;2023-03-31T08:09:56;99612.00;;;19.30
71463;BMP180;59266;52.608;13.260;2023-03-31T08:12:24;99620.00;;;18.60
71463;BMP180;59266;52.608;13.260;2023-03-31T08:14:51;99609.00;;;18.10
71463;BMP180;59266;52.608;13.260;2023-03-31T08:17:17;99614.00;;;19.00
71463;BMP180;59266;52.608;13.260;2023-03-31T08:19:44;99604.00;;;18.10
71463;BMP180;59266;52.608;13.260;2023-03-31T08:22:11;99596.00;;;18.30
71463;BMP180;59266;52.608;13.260;2023-03-31T08:24:37;99598.00;;;18.30
71463;BMP180;59266;52.608;13.260;2023-03-31T08:27:04;99600.00;;;18.80
71463;BMP180;59266;52.608;13.260;2023-03-31T08:29:36;99590.00;;;18.50
71463;BMP180;59266;52.608;13.260;2023-03-31T08:32:03;99591.00;;;19.60
71463;BMP180;59266;52.608;13.260;2023-03-31T08:34:30;99586.00;;;20.10
71463;BMP180;59266;52.608;13.260;2023-03-31T08:36:57;99588.00;;;19.90
71463;BMP180;59266;52.608;13.260;2023-03-31T08:39:26;99582.00;;;19.30
71463;BMP180;59266;52.608;13.260;2023-03-31T08:41:56;99576.00;;;20.10
71463;BMP180;59266;52.608;13.260;2023-03-31T08:47:22;99550.00;;;20.20
71463;BMP180;59266;52.608;13.260;2023-03-31T08:49:53;99551.00;;;22.40
71463;BMP180;59266;52.608;13.260;2023-03-31T08:52:23;99562.00;;;22.40
71463;BMP180;59266;52.608;13.260;2023-03-31T08:54:58;99557.00;;;20.50
71463;BMP180;59266;52.608;13.260;2023-03-31T08:57:34;99564.00;;;19.60
71463;BMP180;59266;52.608;13.260;2023-03-31T09:00:02;99554.00;;;19.50
71463;BMP180;59266;52.608;13.260;2023-03-31T09:02:42;99556.00;;;19.70
71463;BMP180;59266;52.608;13.260;2023-03-31T09:05:39;99546.00;;;19.70
71463;BMP180;59266;52.608;13.260;2023-03-31T09:08:34;99542.00;;;18.00
71463;BMP180;59266;52.608;13.260;2023-03-31T09:11:09;99544.00;;;18.00
71463;BMP180;59266;52.608;13.260;2023-03-31T09:16:41;99532.00;;;18.50
71463;BMP180;59266;52.608;13.260;2023-03-31T09:19:19;99525.00;;;19.00
71463;BMP180;59266;52.608;13.260;2023-03-31T09:21:50;99530.00;;;20.00
71463;BMP180;59266;52.608;13.260;2023-03-31T09:24:21;99520.00;;;20.60
71463;BMP180;59266;52.608;13.260;2023-03-31T09:26:50;99509.00;;;20.20
71463;BMP180;59266;52.608;13.260;2023-03-31T09:29:40;99503.00;;;22.60
71463;BMP180;59266;52.608;13.260;2023-03-31T09:32:14;99503.00;;;20.20
71463;BMP180;59266;52.608;13.260;2023-03-31T09:34:42;99504.00;;;19.50
71463;BMP180;59266;52.608;13.260;2023-03-31T09:37:09;99498.00;;;19.50
71463;BMP180;59266;52.608;13.260;2023-03-31T09:39:37;99504.00;;;19.50
71463;BMP180;59266;52.608;13.260;2023-03-31T09:42:04;99485.00;;;18.60
71463;BMP180;59266;52.608;13.260;2023-03-31T09:44:39;99480.00;;;19.50
71463;BMP180;59266;52.608;13.260;2023-03-31T09:47:14;99492.00;;;19.30
71463;BMP180;59266;52.608;13.260;2023-03-31T09:49:45;99479.00;;;19.40
71463;BMP180;59266;52.608;13.260;2023-03-31T09:52:29;99476.00;;;19.30
71463;BMP180;59266;52.608;13.260;2023-03-31T09:54:59;99465.00;;;19.30
71463;BMP180;59266;52.608;13.260;2023-03-31T09:57:28;99472.00;;;19.30
71463;BMP180;59266;52.608;13.260;2023-03-31T10:02:48;99463.00;;;19.30
71463;BMP180;59266;52.608;13.260;2023-03-31T10:05:28;99473.00;;;18.80
71463;BMP180;59266;52.608;13.260;2023-03-31T10:10:45;99463.00;;;17.90
71463;BMP180;59266;52.608;13.260;2023-03-31T10:13:15;99461.00;;;18.00
71463;BMP180;59266;52.608;13.260;2023-03-31T10:15:43;99456.00;;;17.80
71463;BMP180;59266;52.608;13.260;2023-03-31T10:18:14;99445.00;;;17.80
71463;BMP180;59266;52.608;13.260;2023-03-31T10:20:49;99444.00;;;18.10
71463;BMP180;59266;52.608;13.260;2023-03-31T10:23:29;99445.00;;;17.90
71463;BMP180;59266;52.608;13.260;2023-03-31T10:25:58;99440.00;;;17.80
71463;BMP180;59266;52.608;13.260;2023-03-31T10:28:25;99443.00;;;17.40
71463;BMP180;59266;52.608;13.260;2023-03-31T10:30:55;99431.00;;;17.50
71463;BMP180;59266;52.608;13.260;2023-03-31T10:33:25;99434.00;;;17.10
71463;BMP180;59266;52.608;13.260;2023-03-31T10:35:55;99433.00;;;17.00
71463;BMP180;59266;52.608;13.260;2023-03-31T10:38:25;99431.00;;;16.20
71463;BMP180;59266;52.608;13.260;2023-03-31T10:40:55;99447.00;;;15.60
71463;BMP180;59266;52.608;13.260;2023-03-31T10:46:13;99439.00;;;15.10
71463;BMP180;59266;52.608;13.260;2023-03-31T10:48:41;99429.00;;;15.50
71463;BMP180;59266;52.608;13.260;2023-03-31T10:51:25;99418.00;;;16.00
71463;BMP180;59266;52.608;13.260;2023-03-31T10:53:54;99416.00;;;16.40
71463;BMP180;59266;52.608;13.260;2023-03-31T10:56:28;99408.00;;;16.50
71463;BMP180;59266;52.608;13.260;2023-03-31T10:59:13;99405.00;;;16.50
71463;BMP180;59266;52.608;13.260;2023-03-31T11:07:46;99394.00;;;16.90
71463;BMP180;59266;52.608;13.260;2023-03-31T11:13:33;99394.00;;;17.10
71463;BMP180;59266;52.608;13.260;2023-03-31T11:21:50;99369.00;;;17.30
71463;BMP180;59266;52.608;13.260;2023-03-31T11:27:56;99363.00;;;19.00
71463;BMP180;59266;52.608;13.260;2023-03-31T11:30:27;99350.00;;;18.50
71463;BMP180;59266;52.608;13.260;2023-03-31T11:33:20;99341.00;;;18.20
71463;BMP180;59266;52.608;13.260;2023-03-31T11:36:43;99331.00;;;18.10
71463;BMP180;59266;52.608;13.260;2023-03-31T11:41:42;99322.00;;;18.80
71463;BMP180;59266;52.608;13.260;2023-03-31T11:44:14;99322.00;;;18.90
71463;BMP180;59266;52.608;13.260;2023-03-31T11:46:59;99314.00;;;18.10
71463;BMP180;59266;52.608;13.260;2023-03-31T11:50:02;99308.00;;;17.40
71463;BMP180;59266;52.608;13.260;2023-03-31T11:52:33;99307.00;;;17.80
71463;BMP180;59266;52.608;13.260;2023-03-31T11:55:14;99305.00;;;18.20
71463;BMP180;59266;52.608;13.260;2023-03-31T11:57:45;99299.00;;;18.50
71463;BMP180;59266;52.608;13.260;2023-03-31T12:00:21;99305.00;;;17.90
71463;BMP180;59266;52.608;13.260;2023-03-31T12:02:53;99295.00;;;17.10
71463;BMP180;59266;52.608;13.260;2023-03-31T12:05:21;99294.00;;;16.50
71463;BMP180;59266;52.608;13.260;2023-03-31T12:08:03;99299.00;;;16.80
71463;BMP180;59266;52.608;13.260;2023-03-31T12:10:36;99304.00;;;16.60
71463;BMP180;59266;52.608;13.260;2023-03-31T12:15:56;99299.00;;;16.00
71463;BMP180;59266;52.608;13.260;2023-03-31T12:18:31;99307.00;;;15.90
71463;BMP180;59266;52.608;13.260;2023-03-31T12:21:02;99307.00;;;15.60
71463;BMP180;59266;52.608;13.260;2023-03-31T12:23:34;99292.00;;;15.80
71463;BMP180;59266;52.608;13.260;2023-03-31T12:26:08;99298.00;;;15.80
71463;BMP180;59266;52.608;13.260;2023-03-31T12:28:40;99290.00;;;16.10
71463;BMP180;59266;52.608;13.260;2023-03-31T12:31:12;99289.00;;;15.90
71463;BMP180;59266;52.608;13.260;2023-03-31T12:33:47;99289.00;;;15.80
71463;BMP180;59266;52.608;13.260;2023-03-31T12:36:40;99288.00;;;16.30
71463;BMP180;59266;52.608;13.260;2023-03-31T12:39:27;99267.00;;;16.00
71463;BMP180;59266;52.608;13.260;2023-03-31T12:44:44;99253.00;;;17.20
71463;BMP180;59266;52.608;13.260;2023-03-31T12:47:33;99242.00;;;17.80
71463;BMP180;59266;52.608;13.260;2023-03-31T12:50:31;99250.00;;;17.60
71463;BMP180;59266;52.608;13.260;2023-03-31T12:55:48;99243.00;;;17.00
71463;BMP180;59266;52.608;13.260;2023-03-31T13:01:24;99243.00;;;16.60
71463;BMP180;59266;52.608;13.260;2023-03-31T13:09:06;99226.00;;;16.10
71463;BMP180;59266;52.608;13.260;2023-03-31T13:11:41;99233.00;;;15.80
71463;BMP180;59266;52.608;13.260;2023-03-31T13:14:19;99226.00;;;15.90
71463;BMP180;59266;52.608;13.260;2023-03-31T13:16:48;99231.00;;;15.90
71463;BMP180;59266;52.608;13.260;2023-03-31T13:19:30;99239.00;;;15.20
71463;BMP180;59266;52.608;13.260;2023-03-31T13:21:58;99236.00;;;14.60
71463;BMP180;59266;52.608;13.260;2023-03-31T13:24:28;99231.00;;;14.50
71463;BMP180;59266;52.608;13.260;2023-03-31T13:26:55;99234.00;;;14.20
71463;BMP180;59266;52.608;13.260;2023-03-31T13:29:38;99234.00;;;13.80
71463;BMP180;59266;52.608;13.260;2023-03-31T13:32:25;99236.00;;;13.70
71463;BMP180;59266;52.608;13.260;2023-03-31T13:34:57;99246.00;;;13.80
71463;BMP180;59266;52.608;13.260;2023-03-31T13:37:58;99239.00;;;13.80
71463;BMP180;59266;52.608;13.260;2023-03-31T13:43:55;99238.00;;;13.10
71463;BMP180;59266;52.608;13.260;2023-03-31T13:47:02;99224.00;;;13.10
71463;BMP180;59266;52.608;13.260;2023-03-31T13:49:49;99229.00;;;13.00
71463;BMP180;59266;52.608;13.260;2023-03-31T13:52:30;99223.00;;;13.10
71463;BMP180;59266;52.608;13.260;2023-03-31T13:55:18;99218.00;;;13.10
71463;BMP180;59266;52.608;13.260;2023-03-31T14:00:45;99225.00;;;13.30
71463;BMP180;59266;52.608;13.260;2023-03-31T14:03:37;99217.00;;;13.20
71463;BMP180;59266;52.608;13.260;2023-03-31T14:06:32;99221.00;;;13.40
71463;BMP180;59266;52.608;13.260;2023-03-31T14:09:21;99219.00;;;12.70
71463;BMP180;59266;52.608;13.260;2023-03-31T14:11:49;99222.00;;;12.60
71463;BMP180;59266;52.608;13.260;2023-03-31T14:14:18;99226.00;;;12.30
71463;BMP180;59266;52.608;13.260;2023-03-31T14:16:52;99226.00;;;12.20
71463;BMP180;59266;52.608;13.260;2023-03-31T14:25:31;99222.00;;;12.00
71463;BMP180;59266;52.608;13.260;2023-03-31T14:34:11;99216.00;;;12.10
71463;BMP180;59266;52.608;13.260;2023-03-31T14:36:48;99209.00;;;12.10
71463;BMP180;59266;52.608;13.260;2023-03-31T14:39:20;99211.00;;;12.30
71463;BMP180;59266;52.608;13.260;2023-03-31T14:41:52;99210.00;;;12.30
71463;BMP180;59266;52.608;13.260;2023-03-31T14:44:20;99217.00;;;12.20
71463;BMP180;59266;52.608;13.260;2023-03-31T14:46:47;99207.00;;;12.30
71463;BMP180;59266;52.608;13.260;2023-03-31T14:49:19;99207.00;;;12.10
71463;BMP180;59266;52.608;13.260;2023-03-31T14:51:51;99203.00;;;12.20
71463;BMP180;59266;52.608;13.260;2023-03-31T14:54:20;99201.00;;;12.20
71463;BMP180;59266;52.608;13.260;2023-03-31T14:56:53;99200.00;;;12.10
71463;BMP180;59266;52.608;13.260;2023-03-31T14:59:24;99204.00;;;12.20
71463;BMP180;59266;52.608;13.260;2023-03-31T15:02:01;99204.00;;;12.00
71463;BMP180;59266;52.608;13.260;2023-03-31T15:04:30;99190.00;;;11.80
71463;BMP180;59266;52.608;13.260;2023-03-31T15:07:08;99196.00;;;11.70
71463;BMP180;59266;52.608;13.260;2023-03-31T15:09:35;99197.00;;;11.80
71463;BMP180;59266;52.608;13.260;2023-03-31T15:12:03;99199.00;;;11.80
71463;BMP180;59266;52.608;13.260;2023-03-31T15:14:43;99203.00;;;11.70
71463;BMP180;59266;52.608;13.260;2023-03-31T15:17:18;99205.00;;;11.80
71463;BMP180;59266;52.608;13.260;2023-03-31T15:19:45;99199.00;;;11.70
71463;BMP180;59266;52.608;13.260;2023-03-31T15:22:16;99202.00;;;11.90
71463;BMP180;59266;52.608;13.260;2023-03-31T15:24:46;99196.00;;;11.80
71463;BMP180;59266;52.608;13.260;2023-03-31T15:27:36;99203.00;;;11.70
71463;BMP180;59266;52.608;13.260;2023-03-31T15:30:06;99201.00;;;11.40
71463;BMP180;59266;52.608;13.260;2023-03-31T15:32:36;99204.00;;;11.30
71463;BMP180;59266;52.608;13.260;2023-03-31T15:35:06;99198.00;;;11.20
71463;BMP180;59266;52.608;13.260;2023-03-31T15:37:46;99202.00;;;11.30
71463;BMP180;59266;52.608;13.260;2023-03-31T15:43:05;99196.00;;;11.30
71463;BMP180;59266;52.608;13.260;2023-03-31T15:45:54;99214.00;;;11.40
71463;BMP180;59266;52.608;13.260;2023-03-31T15:51:04;99197.00;;;11.30
71463;BMP180;59266;52.608;13.260;2023-03-31T15:53:46;99191.00;;;11.30
71463;BMP180;59266;52.608;13.260;2023-03-31T15:56:30;99199.00;;;11.40
71463;BMP180;59266;52.608;13.260;2023-03-31T15:59:05;99188.00;;;11.60
71463;BMP180;59266;52.608;13.260;2023-03-31T16:01:44;99193.00;;;11.40
71463;BMP180;59266;52.608;13.260;2023-03-31T16:04:13;99184.00;;;11.60
71463;BMP180;59266;52.608;13.260;2023-03-31T16:06:47;99186.00;;;11.40